Clearview, Washington
Current Conditions -  °F | °C
As of 2:53 PM on Wednesday 26 Nov 2014 (Local Time) from KPAE Reporting Station
Broken Clouds Broken Clouds  
Wind Chill: 14°   Ceiling: 6000
Heat Index: 14°   Visibility: 10mi
Dew Point: 11°   Wind: 21mph
Humidity: 81%   Direction: 180°S
Pressure: 30.02"   Gusts: 29mph
Location:  47.9468°N, 122.012°W
Report Text: KPAE 262253Z 18018G25KT 10SM FEW014 SCT030 BKN060 14/11 A3002 RMK AO2 PK WND 18031/2201 SLP165 T01390106
Loading
Personal Weather Stations






























Interactive Weather Map New forecast layout! Learn more

10-Day Weather Forecast

Advertisements
Track Severe Weather on mobile